sensor_id;sensor_type;location;lat;lon;timestamp;pressure;altitude;pressure_sealevel;temperature;humidity
13734;BME280;43298;52.560;13.508;2022-09-09T00:01:53;99999.94;;;14.11;100.00
13734;BME280;43298;52.560;13.508;2022-09-09T00:04:39;100001.50;;;14.01;100.00
13734;BME280;43298;52.560;13.508;2022-09-09T00:15:43;99999.44;;;13.93;100.00
13734;BME280;43298;52.560;13.508;2022-09-09T00:21:16;99993.69;;;13.88;100.00
13734;BME280;43298;52.560;13.508;2022-09-09T00:23:55;99991.63;;;13.93;100.00
13734;BME280;43298;52.560;13.508;2022-09-09T00:26:44;99984.75;;;13.92;100.00
13734;BME280;43298;52.560;13.508;2022-09-09T00:29:43;99982.38;;;13.89;100.00
13734;BME280;43298;52.560;13.508;2022-09-09T00:32:17;99983.63;;;13.84;100.00
13734;BME280;43298;52.560;13.508;2022-09-09T00:35:01;99977.88;;;13.79;100.00
13734;BME280;43298;52.560;13.508;2022-09-09T00:37:29;99980.69;;;13.76;100.00
13734;BME280;43298;52.560;13.508;2022-09-09T00:40:01;99983.72;;;13.70;100.00
13734;BME280;43298;52.560;13.508;2022-09-09T00:42:48;99977.66;;;13.69;100.00
13734;BME280;43298;52.560;13.508;2022-09-09T00:45:48;99977.66;;;13.69;100.00
13734;BME280;43298;52.560;13.508;2022-09-09T00:48:27;99978.06;;;13.63;100.00
13734;BME280;43298;52.560;13.508;2022-09-09T00:51:09;99980.75;;;13.62;100.00
13734;BME280;43298;52.560;13.508;2022-09-09T00:54:50;99978.81;;;13.65;100.00
13734;BME280;43298;52.560;13.508;2022-09-09T00:57:23;99981.94;;;13.70;100.00
13734;BME280;43298;52.560;13.508;2022-09-09T01:11:29;99983.53;;;14.10;100.00
13734;BME280;43298;52.560;13.508;2022-09-09T01:16:54;99998.38;;;13.83;100.00
13734;BME280;43298;52.560;13.508;2022-09-09T01:26:03;100005.31;;;13.83;100.00
13734;BME280;43298;52.560;13.508;2022-09-09T01:28:19;100008.88;;;13.82;100.00
13734;BME280;43298;52.560;13.508;2022-09-09T01:30:47;99994.03;;;13.96;100.00
13734;BME280;43298;52.560;13.508;2022-09-09T01:33:16;99988.94;;;13.95;100.00
13734;BME280;43298;52.560;13.508;2022-09-09T01:36:06;99988.41;;;13.90;100.00
13734;BME280;43298;52.560;13.508;2022-09-09T01:38:34;99999.84;;;13.87;100.00
13734;BME280;43298;52.560;13.508;2022-09-09T01:41:02;99989.84;;;13.94;100.00
13734;BME280;43298;52.560;13.508;2022-09-09T01:43:28;99985.41;;;13.96;100.00
13734;BME280;43298;52.560;13.508;2022-09-09T01:45:58;99989.34;;;14.01;100.00
13734;BME280;43298;52.560;13.508;2022-09-09T01:48:25;99990.28;;;14.00;100.00
13734;BME280;43298;52.560;13.508;2022-09-09T01:50:52;99992.78;;;14.02;100.00
13734;BME280;43298;52.560;13.508;2022-09-09T01:53:19;99982.50;;;14.00;100.00
13734;BME280;43298;52.560;13.508;2022-09-09T02:05:03;99976.84;;;13.81;100.00
13734;BME280;43298;52.560;13.508;2022-09-09T02:07:43;99976.94;;;13.67;100.00
13734;BME280;43298;52.560;13.508;2022-09-09T02:10:27;99982.03;;;13.69;100.00
13734;BME280;43298;52.560;13.508;2022-09-09T02:13:16;99987.22;;;13.69;100.00
13734;BME280;43298;52.560;13.508;2022-09-09T02:16:07;99995.22;;;13.66;100.00
13734;BME280;43298;52.560;13.508;2022-09-09T02:19:19;99990.75;;;13.68;100.00
13734;BME280;43298;52.560;13.508;2022-09-09T02:21:54;99989.09;;;13.67;100.00
13734;BME280;43298;52.560;13.508;2022-09-09T02:24:22;99983.47;;;13.73;100.00
13734;BME280;43298;52.560;13.508;2022-09-09T02:26:51;99988.06;;;13.69;100.00
13734;BME280;43298;52.560;13.508;2022-09-09T02:29:33;99990.75;;;13.68;100.00
13734;BME280;43298;52.560;13.508;2022-09-09T02:32:03;99987.03;;;13.72;100.00
13734;BME280;43298;52.560;13.508;2022-09-09T02:34:34;99988.91;;;13.70;100.00
13734;BME280;43298;52.560;13.508;2022-09-09T02:37:03;99988.66;;;13.60;100.00
13734;BME280;43298;52.560;13.508;2022-09-09T02:39:31;99982.19;;;13.53;100.00
13734;BME280;43298;52.560;13.508;2022-09-09T02:41:57;99979.31;;;13.58;100.00
13734;BME280;43298;52.560;13.508;2022-09-09T02:44:23;99986.88;;;13.48;100.00
13734;BME280;43298;52.560;13.508;2022-09-09T02:50:08;99982.03;;;13.30;100.00
13734;BME280;43298;52.560;13.508;2022-09-09T02:53:18;99985.84;;;13.24;100.00
13734;BME280;43298;52.560;13.508;2022-09-09T02:55:55;99973.66;;;13.39;100.00
13734;BME280;43298;52.560;13.508;2022-09-09T02:58:23;99975.19;;;13.29;100.00
13734;BME280;43298;52.560;13.508;2022-09-09T03:00:50;99970.84;;;13.29;100.00
13734;BME280;43298;52.560;13.508;2022-09-09T03:03:17;99971.03;;;13.26;100.00
13734;BME280;43298;52.560;13.508;2022-09-09T03:05:45;99978.78;;;13.14;100.00
13734;BME280;43298;52.560;13.508;2022-09-09T03:08:11;99973.16;;;13.07;100.00
13734;BME280;43298;52.560;13.508;2022-09-09T03:10:38;99976.03;;;13.03;100.00
13734;BME280;43298;52.560;13.508;2022-09-09T03:13:05;99973.78;;;12.97;100.00
13734;BME280;43298;52.560;13.508;2022-09-09T03:15:34;99978.25;;;12.95;100.00
13734;BME280;43298;52.560;13.508;2022-09-09T03:18:00;99983.06;;;12.87;100.00
13734;BME280;43298;52.560;13.508;2022-09-09T03:20:28;99985.56;;;12.88;100.00
13734;BME280;43298;52.560;13.508;2022-09-09T03:22:55;99993.34;;;12.88;100.00
13734;BME280;43298;52.560;13.508;2022-09-09T03:25:22;100000.63;;;12.83;100.00
13734;BME280;43298;52.560;13.508;2022-09-09T03:27:52;99995.16;;;12.88;100.00
13734;BME280;43298;52.560;13.508;2022-09-09T03:30:24;99997.44;;;12.78;100.00
13734;BME280;43298;52.560;13.508;2022-09-09T03:32:51;99987.63;;;12.83;100.00
13734;BME280;43298;52.560;13.508;2022-09-09T03:35:17;99999.03;;;12.81;100.00
13734;BME280;43298;52.560;13.508;2022-09-09T03:37:44;99999.22;;;12.78;100.00
13734;BME280;43298;52.560;13.508;2022-09-09T03:40:10;100004.59;;;12.75;100.00
13734;BME280;43298;52.560;13.508;2022-09-09T03:42:37;100000.34;;;12.74;100.00
13734;BME280;43298;52.560;13.508;2022-09-09T03:45:07;99998.22;;;12.80;100.00
13734;BME280;43298;52.560;13.508;2022-09-09T03:47:35;99999.78;;;12.83;100.00
13734;BME280;43298;52.560;13.508;2022-09-09T03:50:01;100001.75;;;12.79;100.00
13734;BME280;43298;52.560;13.508;2022-09-09T03:52:26;99997.66;;;12.75;100.00
13734;BME280;43298;52.560;13.508;2022-09-09T03:54:53;100001.56;;;12.82;100.00
13734;BME280;43298;52.560;13.508;2022-09-09T03:57:20;100005.44;;;12.75;100.00
13734;BME280;43298;52.560;13.508;2022-09-09T03:59:47;100004.44;;;12.64;100.00
13734;BME280;43298;52.560;13.508;2022-09-09T04:02:12;100007.31;;;12.59;100.00
13734;BME280;43298;52.560;13.508;2022-09-09T04:04:38;100007.69;;;12.53;100.00
13734;BME280;43298;52.560;13.508;2022-09-09T04:07:05;99998.16;;;12.54;100.00
13734;BME280;43298;52.560;13.508;2022-09-09T04:09:33;100006.94;;;12.51;100.00
13734;BME280;43298;52.560;13.508;2022-09-09T04:12:00;99989.63;;;12.52;100.00
13734;BME280;43298;52.560;13.508;2022-09-09T04:14:26;99989.34;;;12.56;100.00
13734;BME280;43298;52.560;13.508;2022-09-09T04:16:54;99993.91;;;12.53;100.00
13734;BME280;43298;52.560;13.508;2022-09-09T04:19:21;99988.06;;;12.49;100.00
13734;BME280;43298;52.560;13.508;2022-09-09T04:21:47;99989.16;;;12.45;100.00
13734;BME280;43298;52.560;13.508;2022-09-09T04:24:16;99998.06;;;12.41;100.00
13734;BME280;43298;52.560;13.508;2022-09-09T04:26:43;99985.94;;;12.42;100.00
13734;BME280;43298;52.560;13.508;2022-09-09T04:29:08;100001.09;;;12.34;100.00
13734;BME280;43298;52.560;13.508;2022-09-09T04:31:35;99999.00;;;12.40;100.00
13734;BME280;43298;52.560;13.508;2022-09-09T04:34:00;100000.38;;;12.32;100.00
13734;BME280;43298;52.560;13.508;2022-09-09T04:36:32;100005.31;;;12.36;100.00
13734;BME280;43298;52.560;13.508;2022-09-09T04:38:58;100006.97;;;12.37;100.00
13734;BME280;43298;52.560;13.508;2022-09-09T04:41:23;100019.34;;;12.32;100.00
13734;BME280;43298;52.560;13.508;2022-09-09T04:43:49;100014.81;;;12.36;100.00
13734;BME280;43298;52.560;13.508;2022-09-09T04:46:15;100011.97;;;12.40;100.00
13734;BME280;43298;52.560;13.508;2022-09-09T04:48:43;100011.56;;;12.46;100.00
13734;BME280;43298;52.560;13.508;2022-09-09T04:51:13;100003.59;;;12.49;100.00
13734;BME280;43298;52.560;13.508;2022-09-09T04:53:39;100009.38;;;12.54;100.00
13734;BME280;43298;52.560;13.508;2022-09-09T04:56:14;100011.19;;;12.66;100.00
13734;BME280;43298;52.560;13.508;2022-09-09T04:58:41;100015.44;;;12.67;100.00
13734;BME280;43298;52.560;13.508;2022-09-09T05:01:18;100011.53;;;12.74;100.00
13734;BME280;43298;52.560;13.508;2022-09-09T05:03:44;100023.63;;;12.75;100.00
13734;BME280;43298;52.560;13.508;2022-09-09T05:06:19;100019.25;;;12.76;100.00
13734;BME280;43298;52.560;13.508;2022-09-09T05:08:45;100029.88;;;12.85;100.00
13734;BME280;43298;52.560;13.508;2022-09-09T05:11:26;100021.19;;;13.00;100.00
13734;BME280;43298;52.560;13.508;2022-09-09T05:13:54;100020.59;;;13.09;100.00
13734;BME280;43298;52.560;13.508;2022-09-09T05:16:21;100026.44;;;13.13;100.00
13734;BME280;43298;52.560;13.508;2022-09-09T05:18:47;100007.66;;;13.22;100.00
13734;BME280;43298;52.560;13.508;2022-09-09T05:21:18;100012.81;;;13.36;100.00
13734;BME280;43298;52.560;13.508;2022-09-09T05:23:45;100005.25;;;13.45;100.00
13734;BME280;43298;52.560;13.508;2022-09-09T05:26:18;100007.97;;;13.56;100.00
13734;BME280;43298;52.560;13.508;2022-09-09T05:28:45;100007.06;;;13.57;100.00
13734;BME280;43298;52.560;13.508;2022-09-09T05:31:13;100006.16;;;13.71;100.00
13734;BME280;43298;52.560;13.508;2022-09-09T05:33:41;100007.81;;;13.84;100.00
13734;BME280;43298;52.560;13.508;2022-09-09T05:36:11;100004.53;;;13.95;100.00
13734;BME280;43298;52.560;13.508;2022-09-09T05:38:41;100005.88;;;14.00;100.00
13734;BME280;43298;52.560;13.508;2022-09-09T05:41:08;100002.75;;;14.08;100.00
13734;BME280;43298;52.560;13.508;2022-09-09T05:43:35;99996.41;;;14.12;100.00
13734;BME280;43298;52.560;13.508;2022-09-09T05:46:09;100000.34;;;14.17;100.00
13734;BME280;43298;52.560;13.508;2022-09-09T05:48:41;99998.59;;;14.18;100.00
13734;BME280;43298;52.560;13.508;2022-09-09T05:51:12;99996.56;;;14.23;100.00
13734;BME280;43298;52.560;13.508;2022-09-09T05:53:41;99993.22;;;14.33;100.00
13734;BME280;43298;52.560;13.508;2022-09-09T05:56:22;99997.06;;;14.40;100.00
13734;BME280;43298;52.560;13.508;2022-09-09T05:58:51;99996.13;;;14.41;100.00
13734;BME280;43298;52.560;13.508;2022-09-09T06:01:26;99997.34;;;14.48;100.00
13734;BME280;43298;52.560;13.508;2022-09-09T06:03:53;99998.91;;;14.51;100.00
13734;BME280;43298;52.560;13.508;2022-09-09T06:06:25;99998.38;;;14.58;100.00
13734;BME280;43298;52.560;13.508;2022-09-09T06:08:54;100005.31;;;14.70;100.00
13734;BME280;43298;52.560;13.508;2022-09-09T06:11:28;100011.47;;;14.69;100.00
13734;BME280;43298;52.560;13.508;2022-09-09T06:13:57;100012.03;;;14.98;100.00
13734;BME280;43298;52.560;13.508;2022-09-09T06:16:26;100010.59;;;15.54;100.00
13734;BME280;43298;52.560;13.508;2022-09-09T06:18:54;100003.75;;;16.09;100.00
13734;BME280;43298;52.560;13.508;2022-09-09T06:21:23;99993.94;;;16.35;100.00
13734;BME280;43298;52.560;13.508;2022-09-09T06:23:49;99989.19;;;16.62;100.00
13734;BME280;43298;52.560;13.508;2022-09-09T06:26:29;99994.78;;;16.46;100.00
13734;BME280;43298;52.560;13.508;2022-09-09T06:28:56;99983.97;;;16.62;100.00
13734;BME280;43298;52.560;13.508;2022-09-09T06:31:26;99984.19;;;16.81;100.00
13734;BME280;43298;52.560;13.508;2022-09-09T06:33:53;99977.78;;;16.74;100.00
13734;BME280;43298;52.560;13.508;2022-09-09T06:36:24;99966.84;;;17.33;100.00
13734;BME280;43298;52.560;13.508;2022-09-09T06:38:50;99975.41;;;17.24;100.00
13734;BME280;43298;52.560;13.508;2022-09-09T06:41:19;99974.59;;;17.24;100.00
13734;BME280;43298;52.560;13.508;2022-09-09T06:43:49;99971.22;;;17.33;100.00
13734;BME280;43298;52.560;13.508;2022-09-09T06:46:25;99976.63;;;17.52;100.00
13734;BME280;43298;52.560;13.508;2022-09-09T06:48:54;99981.72;;;17.22;100.00
13734;BME280;43298;52.560;13.508;2022-09-09T06:51:34;99989.25;;;16.93;100.00
13734;BME280;43298;52.560;13.508;2022-09-09T06:54:02;99994.91;;;16.78;100.00
13734;BME280;43298;52.560;13.508;2022-09-09T06:56:31;99993.56;;;16.61;100.00
13734;BME280;43298;52.560;13.508;2022-09-09T06:59:04;99986.75;;;17.14;100.00
13734;BME280;43298;52.560;13.508;2022-09-09T07:01:36;99991.63;;;16.96;100.00
13734;BME280;43298;52.560;13.508;2022-09-09T07:04:03;99980.81;;;17.01;100.00
13734;BME280;43298;52.560;13.508;2022-09-09T07:06:35;99968.41;;;17.56;100.00
13734;BME280;43298;52.560;13.508;2022-09-09T07:09:08;99955.50;;;18.06;100.00
13734;BME280;43298;52.560;13.508;2022-09-09T07:11:39;99965.59;;;18.10;100.00
13734;BME280;43298;52.560;13.508;2022-09-09T07:14:07;99962.69;;;18.34;100.00
13734;BME280;43298;52.560;13.508;2022-09-09T07:16:33;99958.53;;;18.61;100.00
13734;BME280;43298;52.560;13.508;2022-09-09T07:19:03;99960.47;;;18.59;100.00
13734;BME280;43298;52.560;13.508;2022-09-09T07:21:30;99960.94;;;18.83;100.00
13734;BME280;43298;52.560;13.508;2022-09-09T07:23:57;99947.19;;;19.10;100.00
13734;BME280;43298;52.560;13.508;2022-09-09T07:26:26;99938.63;;;19.17;100.00
13734;BME280;43298;52.560;13.508;2022-09-09T07:28:52;99937.41;;;19.21;100.00
13734;BME280;43298;52.560;13.508;2022-09-09T07:31:29;99945.44;;;19.29;100.00
13734;BME280;43298;52.560;13.508;2022-09-09T07:33:59;99939.75;;;19.24;100.00
13734;BME280;43298;52.560;13.508;2022-09-09T07:36:31;99961.78;;;18.93;100.00
13734;BME280;43298;52.560;13.508;2022-09-09T07:39:05;99978.53;;;19.30;100.00
13734;BME280;43298;52.560;13.508;2022-09-09T07:41:48;100004.91;;;19.38;100.00
13734;BME280;43298;52.560;13.508;2022-09-09T07:44:20;100018.88;;;19.48;100.00
13734;BME280;43298;52.560;13.508;2022-09-09T07:46:47;100033.78;;;19.38;100.00
13734;BME280;43298;52.560;13.508;2022-09-09T07:49:13;100051.47;;;19.65;100.00
13734;BME280;43298;52.560;13.508;2022-09-09T07:51:43;100070.22;;;19.51;100.00
13734;BME280;43298;52.560;13.508;2022-09-09T07:54:12;100063.88;;;19.91;100.00
13734;BME280;43298;52.560;13.508;2022-09-09T07:56:39;100079.31;;;20.32;100.00
13734;BME280;43298;52.560;13.508;2022-09-09T07:59:06;100085.34;;;20.52;100.00
13734;BME280;43298;52.560;13.508;2022-09-09T08:01:41;100094.72;;;20.74;100.00
13734;BME280;43298;52.560;13.508;2022-09-09T08:04:14;100128.53;;;20.40;100.00
13734;BME280;43298;52.560;13.508;2022-09-09T08:06:52;100117.03;;;20.50;100.00
13734;BME280;43298;52.560;13.508;2022-09-09T08:09:18;100123.34;;;20.77;100.00
13734;BME280;43298;52.560;13.508;2022-09-09T08:11:45;100126.47;;;20.90;100.00
13734;BME280;43298;52.560;13.508;2022-09-09T08:14:11;100147.47;;;21.09;100.00
13734;BME280;43298;52.560;13.508;2022-09-09T08:16:44;100164.66;;;20.94;100.00
13734;BME280;43298;52.560;13.508;2022-09-09T08:19:11;100155.03;;;21.21;100.00
13734;BME280;43298;52.560;13.508;2022-09-09T08:21:39;100164.22;;;21.35;100.00
13734;BME280;43298;52.560;13.508;2022-09-09T08:24:07;100169.09;;;21.30;100.00
13734;BME280;43298;52.560;13.508;2022-09-09T08:26:42;100185.13;;;21.00;100.00
13734;BME280;43298;52.560;13.508;2022-09-09T08:29:10;100164.91;;;20.91;100.00
13734;BME280;43298;52.560;13.508;2022-09-09T08:31:45;100176.34;;;20.53;100.00
13734;BME280;43298;52.560;13.508;2022-09-09T08:34:11;100172.19;;;20.60;100.00
13734;BME280;43298;52.560;13.508;2022-09-09T08:36:43;100175.13;;;20.28;100.00
13734;BME280;43298;52.560;13.508;2022-09-09T08:39:12;100160.06;;;20.30;100.00
13734;BME280;43298;52.560;13.508;2022-09-09T08:48:39;100151.31;;;19.82;100.00
13734;BME280;43298;52.560;13.508;2022-09-09T08:51:09;100153.06;;;19.63;100.00
13734;BME280;43298;52.560;13.508;2022-09-09T08:53:49;100145.44;;;19.50;100.00
13734;BME280;43298;52.560;13.508;2022-09-09T08:56:21;100142.03;;;19.59;100.00
13734;BME280;43298;52.560;13.508;2022-09-09T08:59:00;100148.19;;;19.49;100.00
13734;BME280;43298;52.560;13.508;2022-09-09T09:02:15;100145.97;;;19.44;100.00
13734;BME280;43298;52.560;13.508;2022-09-09T09:12:55;100148.75;;;20.11;100.00
13734;BME280;43298;52.560;13.508;2022-09-09T09:15:31;100149.13;;;20.54;100.00
13734;BME280;43298;52.560;13.508;2022-09-09T09:18:03;100175.22;;;20.75;100.00
13734;BME280;43298;52.560;13.508;2022-09-09T09:20:45;100188.56;;;21.46;100.00
13734;BME280;43298;52.560;13.508;2022-09-09T09:23:25;100210.13;;;21.50;100.00
13734;BME280;43298;52.560;13.508;2022-09-09T09:25:58;100208.94;;;21.62;100.00
13734;BME280;43298;52.560;13.508;2022-09-09T09:28:30;100234.97;;;21.38;100.00
13734;BME280;43298;52.560;13.508;2022-09-09T09:31:09;100221.22;;;21.80;100.00
13734;BME280;43298;52.560;13.508;2022-09-09T09:33:50;100231.47;;;22.01;100.00
13734;BME280;43298;52.560;13.508;2022-09-09T09:36:18;100255.38;;;22.34;100.00
13734;BME280;43298;52.560;13.508;2022-09-09T09:38:59;100256.53;;;23.10;100.00
13734;BME280;43298;52.560;13.508;2022-09-09T09:41:36;100269.03;;;23.25;100.00
13734;BME280;43298;52.560;13.508;2022-09-09T09:44:05;100267.78;;;23.71;100.00
13734;BME280;43298;52.560;13.508;2022-09-09T09:46:32;100274.75;;;23.80;100.00
13734;BME280;43298;52.560;13.508;2022-09-09T09:49:04;100297.22;;;23.25;100.00
13734;BME280;43298;52.560;13.508;2022-09-09T09:51:32;100294.31;;;22.93;100.00
13734;BME280;43298;52.560;13.508;2022-09-09T09:54:28;100300.72;;;22.90;100.00
13734;BME280;43298;52.560;13.508;2022-09-09T09:56:55;100307.59;;;23.01;100.00
13734;BME280;43298;52.560;13.508;2022-09-09T09:59:36;100301.06;;;23.13;100.00
13734;BME280;43298;52.560;13.508;2022-09-09T10:02:18;100295.44;;;23.59;100.00
13734;BME280;43298;52.560;13.508;2022-09-09T10:04:45;100313.66;;;23.96;100.00
13734;BME280;43298;52.560;13.508;2022-09-09T10:07:21;100324.09;;;23.80;100.00
13734;BME280;43298;52.560;13.508;2022-09-09T10:09:54;100335.22;;;23.91;100.00
13734;BME280;43298;52.560;13.508;2022-09-09T10:21:39;100336.66;;;23.09;100.00
13734;BME280;43298;52.560;13.508;2022-09-09T10:33:58;100366.41;;;24.21;100.00
13734;BME280;43298;52.560;13.508;2022-09-09T10:36:27;100367.53;;;24.11;100.00
13734;BME280;43298;52.560;13.508;2022-09-09T10:39:37;100377.06;;;24.37;100.00
13734;BME280;43298;52.560;13.508;2022-09-09T10:42:12;100370.00;;;24.46;100.00
13734;BME280;43298;52.560;13.508;2022-09-09T10:51:23;100387.38;;;24.15;100.00
13734;BME280;43298;52.560;13.508;2022-09-09T10:54:39;100394.00;;;23.42;100.00
13734;BME280;43298;52.560;13.508;2022-09-09T10:57:34;100387.50;;;23.80;100.00
13734;BME280;43298;52.560;13.508;2022-09-09T11:03:03;100366.81;;;23.06;100.00
13734;BME280;43298;52.560;13.508;2022-09-09T11:05:56;100379.56;;;23.80;100.00
13734;BME280;43298;52.560;13.508;2022-09-09T11:08:29;100390.78;;;24.90;100.00
13734;BME280;43298;52.560;13.508;2022-09-09T11:21:55;100433.00;;;25.72;100.00
13734;BME280;43298;52.560;13.508;2022-09-09T11:24:46;100435.47;;;25.98;100.00
13734;BME280;43298;52.560;13.508;2022-09-09T11:27:19;100441.41;;;25.99;100.00
13734;BME280;43298;52.560;13.508;2022-09-09T11:42:20;100438.22;;;24.50;100.00
13734;BME280;43298;52.560;13.508;2022-09-09T11:44:48;100427.09;;;23.97;100.00
13734;BME280;43298;52.560;13.508;2022-09-09T11:47:29;100411.72;;;23.75;100.00
13734;BME280;43298;52.560;13.508;2022-09-09T11:50:36;100407.53;;;23.90;100.00
13734;BME280;43298;52.560;13.508;2022-09-09T11:53:20;100401.94;;;23.68;100.00
13734;BME280;43298;52.560;13.508;2022-09-09T11:56:08;100402.63;;;23.26;100.00
13734;BME280;43298;52.560;13.508;2022-09-09T11:58:42;100401.09;;;23.42;100.00
13734;BME280;43298;52.560;13.508;2022-09-09T12:01:36;100417.56;;;25.03;100.00
13734;BME280;43298;52.560;13.508;2022-09-09T12:04:34;100424.84;;;24.10;100.00
13734;BME280;43298;52.560;13.508;2022-09-09T12:07:31;100411.47;;;23.86;100.00
13734;BME280;43298;52.560;13.508;2022-09-09T12:10:33;100397.22;;;23.54;100.00
13734;BME280;43298;52.560;13.508;2022-09-09T12:13:21;100399.16;;;23.95;100.00
13734;BME280;43298;52.560;13.508;2022-09-09T12:15:57;100401.94;;;24.19;100.00
13734;BME280;43298;52.560;13.508;2022-09-09T12:24:13;100463.22;;;26.26;100.00
13734;BME280;43298;52.560;13.508;2022-09-09T12:27:04;100465.28;;;26.93;100.00
13734;BME280;43298;52.560;13.508;2022-09-09T12:32:17;100488.91;;;26.25;100.00
13734;BME280;43298;52.560;13.508;2022-09-09T12:35:02;100498.50;;;26.26;100.00
13734;BME280;43298;52.560;13.508;2022-09-09T12:37:45;100493.28;;;25.46;100.00
13734;BME280;43298;52.560;13.508;2022-09-09T12:40:27;100471.59;;;25.50;100.00
13734;BME280;43298;52.560;13.508;2022-09-09T12:42:53;100466.44;;;25.33;100.00
13734;BME280;43298;52.560;13.508;2022-09-09T12:45:31;100463.75;;;25.17;100.00
13734;BME280;43298;52.560;13.508;2022-09-09T12:48:04;100465.50;;;24.84;100.00
13734;BME280;43298;52.560;13.508;2022-09-09T12:50:35;100463.72;;;24.51;100.00
13734;BME280;43298;52.560;13.508;2022-09-09T12:56:04;100468.50;;;24.56;100.00
13734;BME280;43298;52.560;13.508;2022-09-09T12:58:31;100471.56;;;24.35;100.00
13734;BME280;43298;52.560;13.508;2022-09-09T13:01:02;100465.25;;;24.28;100.00
13734;BME280;43298;52.560;13.508;2022-09-09T13:03:33;100463.06;;;24.24;100.00
13734;BME280;43298;52.560;13.508;2022-09-09T13:06:12;100474.00;;;24.29;100.00
13734;BME280;43298;52.560;13.508;2022-09-09T13:08:40;100471.72;;;24.34;100.00
13734;BME280;43298;52.560;13.508;2022-09-09T13:11:20;100476.47;;;24.22;100.00
13734;BME280;43298;52.560;13.508;2022-09-09T13:13:53;100472.88;;;24.06;100.00
13734;BME280;43298;52.560;13.508;2022-09-09T13:16:26;100463.59;;;24.27;100.00
13734;BME280;43298;52.560;13.508;2022-09-09T13:18:56;100461.66;;;24.04;100.00
13734;BME280;43298;52.560;13.508;2022-09-09T13:21:38;100473.38;;;24.01;100.00
13734;BME280;43298;52.560;13.508;2022-09-09T13:24:32;100461.72;;;24.20;100.00
13734;BME280;43298;52.560;13.508;2022-09-09T13:27:05;100464.47;;;23.85;100.00
13734;BME280;43298;52.560;13.508;2022-09-09T13:29:52;100463.59;;;23.76;100.00
13734;BME280;43298;52.560;13.508;2022-09-09T13:32:23;100468.44;;;23.63;100.00
13734;BME280;43298;52.560;13.508;2022-09-09T13:35:23;100458.22;;;23.68;100.00
13734;BME280;43298;52.560;13.508;2022-09-09T13:37:49;100467.97;;;23.68;100.00
13734;BME280;43298;52.560;13.508;2022-09-09T13:40:21;100472.72;;;24.07;100.00
13734;BME280;43298;52.560;13.508;2022-09-09T13:42:56;100472.25;;;24.45;100.00
13734;BME280;43298;52.560;13.508;2022-09-09T13:45:25;100474.13;;;24.94;100.00
13734;BME280;43298;52.560;13.508;2022-09-09T13:47:55;100491.94;;;25.50;100.00
13734;BME280;43298;52.560;13.508;2022-09-09T13:50:27;100495.41;;;25.74;100.00
13734;BME280;43298;52.560;13.508;2022-09-09T13:52:56;100496.91;;;25.93;100.00
13734;BME280;43298;52.560;13.508;2022-09-09T13:55:28;100508.13;;;26.82;100.00
13734;BME280;43298;52.560;13.508;2022-09-09T13:57:55;100505.22;;;27.30;100.00
13734;BME280;43298;52.560;13.508;2022-09-09T14:00:22;100505.25;;;27.67;100.00
13734;BME280;43298;52.560;13.508;2022-09-09T14:02:49;100511.66;;;27.35;100.00
13734;BME280;43298;52.560;13.508;2022-09-09T14:05:18;100506.28;;;28.03;100.00
13734;BME280;43298;52.560;13.508;2022-09-09T14:07:45;100504.94;;;28.21;100.00
13734;BME280;43298;52.560;13.508;2022-09-09T14:10:11;100507.50;;;27.78;100.00
13734;BME280;43298;52.560;13.508;2022-09-09T14:12:37;100516.16;;;27.57;100.00
13734;BME280;43298;52.560;13.508;2022-09-09T14:15:05;100519.00;;;26.95;100.00
13734;BME280;43298;52.560;13.508;2022-09-09T14:17:32;100512.13;;;25.59;100.00
13734;BME280;43298;52.560;13.508;2022-09-09T14:19:58;100515.78;;;24.92;100.00
13734;BME280;43298;52.560;13.508;2022-09-09T14:22:24;100502.84;;;24.81;100.00
13734;BME280;43298;52.560;13.508;2022-09-09T14:24:51;100496.84;;;24.71;100.00
13734;BME280;43298;52.560;13.508;2022-09-09T14:27:17;100505.84;;;25.52;100.00
13734;BME280;43298;52.560;13.508;2022-09-09T14:29:44;100506.81;;;26.15;100.00
13734;BME280;43298;52.560;13.508;2022-09-09T14:32:11;100505.16;;;26.22;100.00
13734;BME280;43298;52.560;13.508;2022-09-09T14:34:37;100510.28;;;26.24;100.00
13734;BME280;43298;52.560;13.508;2022-09-09T14:37:03;100503.88;;;25.38;100.00
13734;BME280;43298;52.560;13.508;2022-09-09T14:39:29;100507.44;;;25.13;100.00
13734;BME280;43298;52.560;13.508;2022-09-09T14:41:55;100499.38;;;26.19;100.00
13734;BME280;43298;52.560;13.508;2022-09-09T14:44:21;100505.06;;;26.62;100.00
13734;BME280;43298;52.560;13.508;2022-09-09T14:46:48;100504.72;;;27.04;100.00
13734;BME280;43298;52.560;13.508;2022-09-09T14:49:15;100494.09;;;26.96;100.00
13734;BME280;43298;52.560;13.508;2022-09-09T14:51:41;100497.91;;;27.54;100.00
13734;BME280;43298;52.560;13.508;2022-09-09T14:54:07;100498.22;;;27.74;100.00
13734;BME280;43298;52.560;13.508;2022-09-09T14:56:34;100504.09;;;27.24;100.00
13734;BME280;43298;52.560;13.508;2022-09-09T14:59:00;100516.00;;;26.67;100.00
13734;BME280;43298;52.560;13.508;2022-09-09T15:01:28;100506.66;;;25.52;100.00
13734;BME280;43298;52.560;13.508;2022-09-09T15:04:03;100507.09;;;24.41;100.00
13734;BME280;43298;52.560;13.508;2022-09-09T15:06:34;100498.63;;;23.86;100.00